Time;durP1;ratioP1;P1;durP2;ratioP2;P2;SDS_P1;SDS_P2;PMS_P1;PMS_P2;Temp;Humidity;BMP_temperature;BMP_pressure;BME280_temperature;BME280_humidity;BME280_pressure;Samples;Min_cycle;Max_cycle;Signal;HPM_P1;HPM_P2
2022/05/17 00:01:15;;;;;;;2.10;2.00;;;21.00;60.40;;;;;;5077159;28;20175;-67
2022/05/17 00:03:40;;;;;;;1.90;1.80;;;21.00;60.40;;;;;;5077111;28;20184;-67
2022/05/17 00:06:06;;;;;;;2.27;2.07;;;21.00;60.40;;;;;;5077033;28;20199;-68
2022/05/17 00:08:33;;;;;;;1.80;1.70;;;21.00;60.40;;;;;;5076947;28;20182;-68
2022/05/17 00:11:00;;;;;;;2.10;2.00;;;21.00;60.40;;;;;;5077246;28;20178;-66
2022/05/17 00:13:26;;;;;;;2.40;2.20;;;21.00;60.40;;;;;;5077257;28;20479;-67
2022/05/17 00:15:52;;;;;;;1.97;1.87;;;21.00;60.40;;;;;;5086329;28;21125;-67
2022/05/17 00:18:19;;;;;;;2.60;2.40;;;21.00;60.40;;;;;;5090172;28;20414;-67
2022/05/17 00:20:45;;;;;;;2.30;2.20;;;21.00;60.40;;;;;;5076613;28;20171;-66
2022/05/17 00:23:12;;;;;;;1.83;1.73;;;21.00;60.40;;;;;;5096266;28;20470;-67
2022/05/17 00:25:38;;;;;;;2.30;1.97;;;21.00;60.40;;;;;;5078577;28;20532;-66
2022/05/17 00:28:04;;;;;;;1.97;1.87;;;21.00;60.40;;;;;;5088592;28;20473;-66
2022/05/17 00:30:31;;;;;;;2.30;1.90;;;21.00;60.40;;;;;;5092898;28;20409;-68
2022/05/17 00:32:57;;;;;;;2.40;2.20;;;21.00;60.40;;;;;;5075495;28;20491;-68
2022/05/17 00:35:23;;;;;;;2.30;2.10;;;21.00;60.40;;;;;;5076451;28;20449;-66
2022/05/17 00:37:49;;;;;;;1.87;1.77;;;21.00;60.40;;;;;;5076520;28;20466;-66
2022/05/17 00:40:15;;;;;;;1.90;1.80;;;21.00;60.40;;;;;;5076458;28;20168;-67
2022/05/17 00:42:40;;;;;;;2.10;2.00;;;21.00;60.40;;;;;;5076404;28;20171;-67
2022/05/17 00:45:09;;;;;;;2.10;2.00;;;21.00;60.40;;;;;;5076337;28;20241;-66
2022/05/17 00:47:48;;;;;;;2.10;2.00;;;21.00;60.40;;;;;;5076078;28;20671;-68
2022/05/17 00:50:51;;;;;;;2.40;2.20;;;21.00;60.40;;;;;;5076268;28;20896;-67
2022/05/17 00:53:26;;;;;;;2.47;2.30;;;21.00;60.40;;;;;;5053968;28;20518;-68
2022/05/17 00:55:55;;;;;;;1.90;1.70;;;21.00;60.40;;;;;;5073409;28;20850;-67
2022/05/17 00:58:42;;;;;;;2.13;2.03;;;21.00;60.40;;;;;;5076366;28;20401;-69
2022/05/17 01:01:18;;;;;;;2.30;2.20;;;21.00;60.40;;;;;;5076050;28;20420;-66
2022/05/17 01:03:57;;;;;;;2.50;2.30;;;21.00;60.50;;;;;;5076037;28;20492;-68
2022/05/17 01:06:26;;;;;;;2.13;2.00;;;21.00;60.50;;;;;;5075856;28;20429;-67
2022/05/17 01:08:52;;;;;;;1.90;1.80;;;21.00;60.50;;;;;;5075822;28;20761;-67
2022/05/17 01:11:18;;;;;;;2.33;1.80;;;21.00;60.40;;;;;;5075895;28;20926;-67
2022/05/17 01:16:30;;;;;;;2.13;2.03;;;21.00;60.40;;;;;;5075933;28;20811;-67
2022/05/17 01:18:56;;;;;;;2.20;2.00;;;21.00;60.50;;;;;;5075762;28;20750;-67
2022/05/17 01:21:22;;;;;;;2.30;2.10;;;21.00;60.50;;;;;;5075628;28;20417;-68
2022/05/17 01:23:49;;;;;;;1.90;1.80;;;21.00;60.50;;;;;;5075588;28;20417;-67
2022/05/17 01:26:21;;;;;;;1.87;1.77;;;21.00;60.40;;;;;;5075466;28;20187;-67
2022/05/17 01:28:47;;;;;;;1.97;1.87;;;21.00;60.40;;;;;;5075502;28;20412;-67
2022/05/17 01:31:13;;;;;;;2.30;2.20;;;21.00;60.40;;;;;;5075476;28;20417;-66
2022/05/17 01:33:39;;;;;;;1.80;1.70;;;21.00;60.50;;;;;;5075253;28;20778;-67
2022/05/17 01:36:08;;;;;;;2.13;2.03;;;21.00;60.40;;;;;;5075244;28;20240;-66
2022/05/17 01:38:35;;;;;;;2.13;2.03;;;21.00;60.50;;;;;;5075312;28;20401;-67
2022/05/17 01:41:01;;;;;;;2.30;2.20;;;21.00;60.40;;;;;;5075206;28;20489;-68
2022/05/17 01:43:27;;;;;;;2.70;2.60;;;21.00;60.40;;;;;;5075187;28;20437;-66
2022/05/17 01:45:53;;;;;;;2.50;2.30;;;21.00;60.40;;;;;;5075000;28;20968;-67
2022/05/17 01:48:19;;;;;;;2.40;2.07;;;21.00;60.50;;;;;;5074956;28;20310;-67
2022/05/17 01:50:45;;;;;;;1.93;1.80;;;21.00;60.40;;;;;;5075025;28;20193;-67
2022/05/17 01:53:11;;;;;;;1.83;1.73;;;21.00;60.40;;;;;;5074941;28;20621;-67
2022/05/17 01:55:36;;;;;;;2.33;1.80;;;21.00;60.40;;;;;;5074866;28;20462;-67
2022/05/17 01:58:03;;;;;;;2.00;1.90;;;21.00;60.40;;;;;;5074902;28;20534;-67
2022/05/17 02:00:30;;;;;;;2.10;2.00;;;21.00;60.40;;;;;;5074851;28;20262;-68
2022/05/17 02:02:56;;;;;;;2.30;2.20;;;21.00;60.40;;;;;;5074806;28;20414;-69
2022/05/17 02:05:23;;;;;;;2.30;2.20;;;21.00;60.40;;;;;;5074081;28;20465;-67
2022/05/17 02:07:50;;;;;;;1.93;1.83;;;21.00;60.40;;;;;;5074705;28;20438;-67
2022/05/17 02:10:25;;;;;;;1.80;1.70;;;21.00;60.40;;;;;;5073744;28;20543;-67
2022/05/17 02:12:52;;;;;;;2.00;1.90;;;21.00;60.40;;;;;;5074908;28;20527;-66
2022/05/17 02:15:18;;;;;;;1.90;1.80;;;21.00;60.40;;;;;;5074610;28;20424;-66
2022/05/17 02:17:44;;;;;;;2.47;2.27;;;21.00;60.40;;;;;;5074777;28;20895;-66
2022/05/17 02:20:10;;;;;;;2.40;2.20;;;21.00;60.40;;;;;;5074556;28;20171;-68
2022/05/17 02:22:36;;;;;;;1.93;1.83;;;21.00;60.40;;;;;;5074471;28;20280;-67
2022/05/17 02:25:02;;;;;;;1.90;1.80;;;21.00;60.40;;;;;;5073531;28;20409;-67
2022/05/17 02:27:28;;;;;;;2.33;2.13;;;21.00;60.40;;;;;;5074352;28;20459;-67
2022/05/17 02:29:54;;;;;;;2.50;2.30;;;21.00;60.40;;;;;;5074418;28;20408;-67
2022/05/17 02:32:20;;;;;;;2.27;2.07;;;21.00;60.40;;;;;;5074318;28;20183;-67
2022/05/17 02:34:45;;;;;;;2.10;2.00;;;21.00;60.40;;;;;;5074313;28;20406;-67
2022/05/17 02:37:11;;;;;;;2.13;2.03;;;21.00;60.40;;;;;;5074321;28;20182;-66
2022/05/17 02:39:37;;;;;;;2.30;2.20;;;21.00;60.40;;;;;;5074348;28;20171;-68
2022/05/17 02:42:03;;;;;;;2.17;2.07;;;21.00;60.40;;;;;;5074317;28;20251;-68
2022/05/17 02:44:29;;;;;;;2.47;2.27;;;21.00;60.40;;;;;;5074305;28;20210;-68
2022/05/17 02:46:57;;;;;;;1.90;1.80;;;21.00;60.40;;;;;;5073926;28;20935;-68
2022/05/17 02:49:23;;;;;;;2.33;2.23;;;21.00;60.40;;;;;;5073310;28;20413;-68
2022/05/17 02:51:48;;;;;;;2.20;2.10;;;21.00;60.40;;;;;;5074481;28;20440;-67
2022/05/17 02:54:14;;;;;;;2.27;2.17;;;21.00;60.50;;;;;;5074134;28;20485;-67
2022/05/17 02:56:40;;;;;;;2.30;2.20;;;21.00;60.40;;;;;;5074102;28;20194;-66
2022/05/17 02:59:05;;;;;;;2.43;2.33;;;21.00;60.40;;;;;;5074145;28;20168;-66
2022/05/17 03:01:31;;;;;;;2.30;2.10;;;21.00;60.40;;;;;;5074090;28;20175;-66
2022/05/17 03:03:57;;;;;;;2.00;1.90;;;21.00;60.40;;;;;;5073136;28;20343;-68
2022/05/17 03:06:23;;;;;;;2.03;1.93;;;21.00;60.40;;;;;;5073996;28;20927;-68
2022/05/17 03:08:49;;;;;;;2.17;2.07;;;21.00;60.40;;;;;;5074040;28;20174;-67
2022/05/17 03:11:15;;;;;;;2.20;2.00;;;21.00;60.40;;;;;;5074046;28;20882;-67
2022/05/17 03:13:41;;;;;;;2.17;2.03;;;21.00;60.40;;;;;;5073928;28;20624;-67
2022/05/17 03:16:07;;;;;;;2.20;2.00;;;21.00;60.40;;;;;;5075680;28;20421;-67
2022/05/17 03:18:33;;;;;;;2.13;2.03;;;21.00;60.50;;;;;;5077061;28;20190;-66
2022/05/17 03:20:58;;;;;;;2.30;2.20;;;21.00;60.40;;;;;;5077947;28;20439;-69
2022/05/17 03:23:24;;;;;;;1.97;1.87;;;21.00;60.40;;;;;;5077910;28;20226;-69
2022/05/17 03:25:49;;;;;;;2.47;2.30;;;21.00;60.50;;;;;;5077854;28;20198;-68
2022/05/17 03:28:15;;;;;;;2.37;2.27;;;21.00;60.50;;;;;;5077898;28;20174;-69
2022/05/17 03:30:41;;;;;;;2.47;2.37;;;21.00;60.50;;;;;;5077777;28;20623;-69
2022/05/17 03:33:08;;;;;;;2.17;1.93;;;21.00;60.40;;;;;;5077670;28;20515;-68
2022/05/17 03:35:34;;;;;;;2.10;2.00;;;21.00;60.40;;;;;;5076621;28;20463;-67
2022/05/17 03:38:00;;;;;;;2.33;2.23;;;21.00;60.40;;;;;;5076715;28;20739;-66
2022/05/17 03:40:26;;;;;;;2.07;1.97;;;21.00;60.50;;;;;;5077555;28;20577;-66
2022/05/17 03:42:51;;;;;;;2.30;2.20;;;21.00;60.40;;;;;;5077517;28;20440;-66
2022/05/17 03:45:17;;;;;;;2.13;2.00;;;21.00;60.50;;;;;;5077502;28;20231;-66
2022/05/17 03:47:43;;;;;;;2.17;2.07;;;21.00;60.40;;;;;;5077144;28;20223;-66
2022/05/17 03:50:10;;;;;;;2.27;2.17;;;21.00;60.40;;;;;;5077360;28;20256;-66
2022/05/17 03:52:36;;;;;;;2.80;2.60;;;21.00;60.50;;;;;;5077247;28;20214;-67
2022/05/17 03:55:04;;;;;;;2.33;2.10;;;21.00;60.50;;;;;;5077261;28;20405;-67
2022/05/17 03:57:30;;;;;;;2.40;2.30;;;21.00;60.50;;;;;;5076235;28;20629;-68
2022/05/17 03:59:56;;;;;;;1.93;1.83;;;21.00;60.40;;;;;;5077151;28;20417;-66
2022/05/17 04:02:23;;;;;;;3.10;2.83;;;21.00;60.50;;;;;;5077411;28;20718;-67
2022/05/17 04:04:56;;;;;;;2.17;2.03;;;21.00;60.50;;;;;;5077093;28;20167;-67
2022/05/17 04:07:22;;;;;;;2.00;1.90;;;21.00;60.50;;;;;;5077010;28;20424;-67
2022/05/17 04:09:49;;;;;;;3.00;2.20;;;21.00;60.50;;;;;;5076029;28;20425;-67
2022/05/17 04:12:15;;;;;;;3.10;2.90;;;21.00;60.40;;;;;;5076986;28;20412;-67
2022/05/17 04:14:41;;;;;;;2.13;2.03;;;21.00;60.50;;;;;;5077872;28;20422;-66
2022/05/17 04:17:07;;;;;;;2.20;2.10;;;21.00;60.50;;;;;;5094810;28;20194;-67
2022/05/17 04:19:35;;;;;;;2.03;1.93;;;21.00;60.50;;;;;;5083253;28;20438;-68
2022/05/17 04:22:00;;;;;;;2.10;2.00;;;21.00;60.50;;;;;;5085751;28;20537;-69
2022/05/17 04:24:26;;;;;;;2.50;2.33;;;21.00;60.50;;;;;;5097002;28;20484;-67
2022/05/17 04:26:53;;;;;;;2.33;2.13;;;21.00;60.50;;;;;;5096379;28;20204;-67
2022/05/17 04:29:19;;;;;;;2.80;2.60;;;21.00;60.50;;;;;;5096752;28;20483;-67
2022/05/17 04:31:44;;;;;;;2.00;1.90;;;21.00;60.50;;;;;;5095890;28;20512;-67
2022/05/17 04:34:10;;;;;;;2.47;2.27;;;21.00;60.50;;;;;;5096745;28;20205;-67
2022/05/17 04:36:35;;;;;;;2.43;2.33;;;21.00;60.50;;;;;;5095718;28;20201;-66
2022/05/17 04:39:03;;;;;;;2.33;2.17;;;21.00;60.50;;;;;;5095787;28;20173;-66
2022/05/17 04:41:28;;;;;;;2.10;2.00;;;21.00;60.40;;;;;;5096785;28;20503;-66
2022/05/17 04:43:54;;;;;;;2.83;2.60;;;21.00;60.50;;;;;;5096625;28;20457;-67
2022/05/17 04:46:20;;;;;;;2.47;2.37;;;21.00;60.50;;;;;;5096592;28;20659;-68
2022/05/17 04:48:45;;;;;;;2.33;2.23;;;21.00;60.40;;;;;;5090588;28;20258;-67
2022/05/17 04:51:12;;;;;;;2.27;2.13;;;21.00;60.40;;;;;;5082124;28;20183;-67
2022/05/17 04:53:39;;;;;;;2.43;2.33;;;21.00;60.40;;;;;;5078629;28;20248;-68
2022/05/17 04:56:06;;;;;;;2.10;2.00;;;21.00;60.40;;;;;;5096351;28;20423;-67
2022/05/17 04:58:33;;;;;;;2.87;2.67;;;21.00;60.40;;;;;;5096388;28;20409;-68
2022/05/17 05:01:00;;;;;;;2.33;2.23;;;21.00;60.40;;;;;;5096540;28;20409;-68
2022/05/17 05:03:27;;;;;;;2.53;2.33;;;21.00;60.40;;;;;;5096524;28;20554;-68
2022/05/17 05:05:52;;;;;;;3.20;2.17;;;21.00;60.40;;;;;;5096145;28;20493;-68
2022/05/17 05:08:18;;;;;;;2.80;2.60;;;21.00;60.40;;;;;;5095222;28;20423;-68
2022/05/17 05:10:45;;;;;;;2.20;2.10;;;21.00;60.50;;;;;;5096104;28;20179;-68
2022/05/17 05:13:17;;;;;;;3.27;3.07;;;21.00;60.50;;;;;;5096251;28;20456;-68
2022/05/17 05:15:43;;;;;;;2.90;2.60;;;21.00;60.50;;;;;;5096326;28;20741;-66
2022/05/17 05:18:09;;;;;;;3.33;3.03;;;21.10;60.80;;;;;;5095969;28;20449;-67
2022/05/17 05:20:34;;;;;;;3.03;2.83;;;21.00;60.80;;;;;;5095871;28;20186;-67
2022/05/17 05:23:01;;;;;;;2.80;2.63;;;21.00;60.90;;;;;;5095879;28;20198;-67
2022/05/17 05:25:27;;;;;;;3.00;2.80;;;21.00;61.00;;;;;;5095771;28;20575;-66
2022/05/17 05:27:54;;;;;;;2.87;2.67;;;21.00;61.00;;;;;;5095739;28;20538;-67
2022/05/17 05:30:20;;;;;;;2.50;2.40;;;21.00;61.10;;;;;;5095730;28;20178;-67
2022/05/17 05:32:46;;;;;;;3.00;2.70;;;21.00;61.10;;;;;;5095589;28;20529;-67
2022/05/17 05:35:15;;;;;;;2.80;2.60;;;21.00;61.10;;;;;;5095616;28;20408;-68
2022/05/17 05:37:41;;;;;;;3.03;2.83;;;21.00;61.20;;;;;;5095511;28;20992;-67
2022/05/17 05:40:08;;;;;;;2.30;2.20;;;21.00;61.20;;;;;;5094608;28;20491;-68
2022/05/17 05:42:34;;;;;;;2.80;2.60;;;20.90;61.30;;;;;;5095511;28;20432;-67
2022/05/17 05:44:59;;;;;;;2.70;2.50;;;20.90;61.30;;;;;;5095443;28;20802;-68
2022/05/17 05:47:25;;;;;;;2.53;2.40;;;20.90;61.40;;;;;;5095119;28;20215;-68
2022/05/17 05:49:51;;;;;;;2.90;2.70;;;20.90;61.40;;;;;;5094421;28;20253;-68
2022/05/17 05:52:18;;;;;;;4.00;2.80;;;20.90;61.50;;;;;;5095235;28;20174;-67
2022/05/17 05:54:44;;;;;;;3.40;3.20;;;20.90;61.60;;;;;;5094242;28;20220;-68
2022/05/17 05:57:10;;;;;;;3.07;2.77;;;20.90;61.60;;;;;;5095439;28;20416;-68
2022/05/17 05:59:36;;;;;;;2.63;2.43;;;20.90;61.60;;;;;;5095125;28;20397;-68
2022/05/17 06:02:02;;;;;;;2.87;2.67;;;20.90;61.50;;;;;;5095148;28;20451;-67
2022/05/17 06:04:28;;;;;;;2.90;2.33;;;20.90;61.50;;;;;;5095395;28;20741;-68
2022/05/17 06:06:56;;;;;;;2.50;2.30;;;20.90;61.50;;;;;;5094041;28;20440;-68
2022/05/17 06:09:25;;;;;;;2.83;2.63;;;20.90;61.60;;;;;;5093993;28;20620;-68
2022/05/17 06:11:50;;;;;;;2.93;2.73;;;20.90;61.60;;;;;;5094986;28;20889;-68
2022/05/17 06:14:16;;;;;;;2.90;2.70;;;20.90;61.70;;;;;;5095078;28;20498;-68
2022/05/17 06:16:42;;;;;;;2.70;2.50;;;20.90;61.70;;;;;;5094850;28;20191;-68
2022/05/17 06:19:07;;;;;;;2.83;2.63;;;20.90;61.70;;;;;;5093890;28;20182;-68
2022/05/17 06:21:33;;;;;;;2.73;2.53;;;20.90;61.70;;;;;;5093869;28;20251;-68
2022/05/17 06:23:59;;;;;;;2.70;2.50;;;20.90;61.60;;;;;;5094755;28;20162;-68
2022/05/17 06:26:24;;;;;;;2.63;2.47;;;20.90;61.70;;;;;;5094573;28;20667;-68
2022/05/17 06:28:50;;;;;;;2.77;2.50;;;21.00;61.50;;;;;;5094676;28;20176;-68
2022/05/17 06:31:16;;;;;;;2.20;2.10;;;21.00;61.60;;;;;;5094617;28;20182;-68
2022/05/17 06:33:41;;;;;;;2.57;2.43;;;21.00;61.50;;;;;;5094452;28;20209;-68
2022/05/17 06:36:07;;;;;;;2.40;2.30;;;21.00;61.50;;;;;;5094367;28;20196;-68
2022/05/17 06:38:34;;;;;;;2.77;2.60;;;21.00;61.50;;;;;;5094563;28;20201;-68
2022/05/17 06:40:59;;;;;;;2.87;2.67;;;21.00;61.60;;;;;;5094569;28;20744;-68
2022/05/17 06:43:26;;;;;;;2.77;2.57;;;21.00;61.60;;;;;;5094490;28;20408;-68
2022/05/17 06:45:52;;;;;;;3.13;2.57;;;21.00;61.70;;;;;;5094431;28;20454;-68
2022/05/17 06:48:19;;;;;;;2.90;2.70;;;21.00;61.60;;;;;;5093061;28;21000;-68
2022/05/17 06:50:45;;;;;;;2.80;2.60;;;21.00;61.50;;;;;;5093867;28;20178;-68
2022/05/17 06:53:10;;;;;;;3.27;3.07;;;21.00;61.60;;;;;;5094134;28;20843;-68
2022/05/17 06:55:37;;;;;;;2.90;2.70;;;21.00;61.60;;;;;;5094152;28;20177;-68
2022/05/17 06:58:04;;;;;;;3.47;3.17;;;21.00;61.50;;;;;;5093227;28;20421;-68
2022/05/17 07:00:31;;;;;;;3.70;3.30;;;21.00;61.70;;;;;;5094117;28;20428;-68
2022/05/17 07:02:58;;;;;;;2.53;2.37;;;21.00;61.70;;;;;;5094159;28;20756;-68
2022/05/17 07:05:24;;;;;;;2.90;2.60;;;21.00;61.70;;;;;;5094042;28;20422;-68
2022/05/17 07:07:49;;;;;;;3.77;3.43;;;21.00;61.60;;;;;;5094052;28;20409;-68
2022/05/17 07:13:08;;;;;;;3.00;2.80;;;21.00;61.70;;;;;;5093994;28;20643;-66
2022/05/17 07:15:35;;;;;;;2.70;2.50;;;21.00;61.60;;;;;;5093911;28;20435;-67
2022/05/17 07:18:00;;;;;;;2.97;2.77;;;21.00;61.50;;;;;;5093974;28;21007;-66
2022/05/17 07:20:30;;;;;;;2.70;2.50;;;21.00;61.60;;;;;;5093938;28;20461;-69
2022/05/17 07:22:55;;;;;;;3.60;3.30;;;21.00;61.60;;;;;;5093913;28;20604;-69
2022/05/17 07:25:21;;;;;;;3.23;2.70;;;21.10;61.90;;;;;;5093908;28;20428;-68
2022/05/17 07:27:47;;;;;;;3.20;2.53;;;21.10;62.00;;;;;;5092771;28;20650;-68
2022/05/17 07:30:14;;;;;;;2.43;2.30;;;21.10;61.80;;;;;;5093855;28;20186;-68
2022/05/17 07:32:40;;;;;;;2.80;2.53;;;21.00;61.70;;;;;;5093723;28;20420;-67
2022/05/17 07:35:09;;;;;;;3.37;3.17;;;21.00;61.80;;;;;;5093778;28;20518;-68
2022/05/17 07:37:35;;;;;;;2.80;2.60;;;21.00;61.90;;;;;;5093729;28;20188;-67
2022/05/17 07:40:02;;;;;;;3.13;2.93;;;21.00;61.80;;;;;;5092785;28;20422;-69
2022/05/17 07:42:28;;;;;;;2.97;2.77;;;21.00;61.90;;;;;;5093811;28;20419;-68
2022/05/17 07:44:54;;;;;;;3.70;3.07;;;21.00;61.80;;;;;;5093885;28;20841;-69
2022/05/17 07:47:20;;;;;;;2.80;2.60;;;21.00;61.80;;;;;;5093607;28;20283;-69
2022/05/17 07:49:45;;;;;;;2.43;2.33;;;21.00;61.80;;;;;;5094062;28;20416;-70
2022/05/17 07:52:12;;;;;;;3.10;2.90;;;21.00;61.70;;;;;;5093754;28;20179;-68
2022/05/17 07:54:38;;;;;;;2.90;2.70;;;21.00;61.80;;;;;;5093675;28;20277;-68
2022/05/17 07:57:07;;;;;;;3.23;3.03;;;21.00;61.70;;;;;;5093675;28;20523;-68
2022/05/17 07:59:33;;;;;;;3.10;2.90;;;21.00;61.70;;;;;;5086553;28;20198;-68
2022/05/17 08:01:59;;;;;;;2.63;2.43;;;21.00;61.60;;;;;;5083247;28;20469;-68
2022/05/17 08:04:25;;;;;;;2.93;2.70;;;21.00;61.60;;;;;;5076996;28;20492;-68
2022/05/17 08:06:51;;;;;;;2.70;2.60;;;21.00;61.70;;;;;;5095889;28;20463;-70
2022/05/17 08:09:18;;;;;;;2.73;2.63;;;21.00;61.60;;;;;;5071165;28;20195;-66
2022/05/17 08:11:44;;;;;;;3.37;3.17;;;21.00;61.60;;;;;;5087357;28;20420;-66
2022/05/17 08:14:10;;;;;;;3.20;3.00;;;21.00;61.70;;;;;;5096953;28;20996;-68
2022/05/17 08:16:36;;;;;;;3.03;2.83;;;21.00;61.70;;;;;;5097131;28;20431;-68
2022/05/17 08:19:02;;;;;;;3.20;2.90;;;21.00;61.60;;;;;;5096988;28;20400;-66
2022/05/17 08:21:28;;;;;;;3.93;3.53;;;21.00;61.60;;;;;;5097054;28;20415;-66
2022/05/17 08:23:54;;;;;;;3.40;3.10;;;21.00;61.80;;;;;;5097028;28;20412;-68
2022/05/17 08:29:03;;;;;;;3.70;3.40;;;21.00;61.70;;;;;;5097249;28;20173;-67
2022/05/17 08:31:29;;;;;;;3.13;2.93;;;21.00;61.80;;;;;;5097172;28;20785;-66
2022/05/17 08:33:55;;;;;;;3.83;3.53;;;21.00;61.70;;;;;;5097032;28;20282;-67
2022/05/17 08:36:20;;;;;;;3.47;3.27;;;21.00;61.70;;;;;;5096769;28;20721;-66
2022/05/17 08:38:48;;;;;;;2.70;2.60;;;21.00;61.70;;;;;;5096775;28;20184;-67
2022/05/17 08:41:36;;;;;;;3.23;2.87;;;21.00;61.60;;;;;;5096662;28;20166;-66
2022/05/17 08:44:13;;;;;;;3.90;3.50;;;21.10;61.60;;;;;;5095698;28;20419;-68
2022/05/17 08:46:47;;;;;;;3.27;3.07;;;21.00;61.60;;;;;;5096349;28;20420;-68
2022/05/17 08:49:25;;;;;;;2.93;2.63;;;21.00;62.10;;;;;;5096595;28;20404;-68
2022/05/17 08:52:02;;;;;;;3.27;3.07;;;21.00;61.80;;;;;;5096520;28;20465;-67
2022/05/17 08:54:57;;;;;;;3.20;3.00;;;21.10;61.70;;;;;;5096400;28;20762;-67
2022/05/17 08:57:32;;;;;;;2.80;2.60;;;21.00;61.70;;;;;;5076677;28;20440;-69
2022/05/17 09:00:22;;;;;;;3.40;3.20;;;21.00;61.70;;;;;;5096348;28;20393;-66
2022/05/17 09:03:10;;;;;;;3.53;3.23;;;21.00;61.90;;;;;;5096190;28;20911;-68
2022/05/17 09:05:46;;;;;;;3.40;3.20;;;21.00;61.60;;;;;;5095167;28;20446;-68
2022/05/17 09:08:49;;;;;;;3.17;2.97;;;21.10;61.60;;;;;;5055731;28;20860;-67
2022/05/17 09:11:38;;;;;;;3.77;3.50;;;21.10;61.70;;;;;;5071847;28;20882;-68
2022/05/17 09:14:07;;;;;;;3.10;2.90;;;21.10;62.10;;;;;;5075523;28;20441;-67
2022/05/17 09:16:39;;;;;;;2.70;2.50;;;21.10;61.70;;;;;;5075618;28;20524;-67
2022/05/17 09:19:06;;;;;;;3.33;3.03;;;21.10;61.70;;;;;;5075568;28;20924;-68
2022/05/17 09:21:33;;;;;;;2.70;2.60;;;21.10;62.10;;;;;;5075596;28;20397;-68
2022/05/17 09:24:04;;;;;;;3.70;3.40;;;21.10;61.90;;;;;;5075621;28;20401;-67
2022/05/17 09:26:31;;;;;;;3.30;3.10;;;21.10;62.00;;;;;;5075514;28;20556;-68
2022/05/17 09:29:03;;;;;;;2.93;2.73;;;21.10;61.70;;;;;;5075517;28;20410;-67
2022/05/17 09:31:32;;;;;;;3.03;2.83;;;21.10;61.70;;;;;;5075438;28;20879;-67
2022/05/17 09:34:01;;;;;;;3.20;3.00;;;21.10;61.80;;;;;;5074398;28;20458;-68
2022/05/17 09:36:49;;;;;;;3.53;3.30;;;21.10;61.90;;;;;;5075235;28;20439;-68
2022/05/17 09:39:23;;;;;;;3.10;2.90;;;21.10;61.70;;;;;;5075297;28;20718;-66
2022/05/17 09:41:49;;;;;;;3.20;2.93;;;21.10;61.80;;;;;;5075248;28;20401;-67
2022/05/17 09:44:21;;;;;;;2.90;2.70;;;21.10;61.70;;;;;;5075199;28;20429;-67
2022/05/17 09:46:49;;;;;;;3.47;3.27;;;21.10;61.70;;;;;;5074834;28;20429;-67
2022/05/17 09:52:34;;;;;;;3.83;3.53;;;21.10;62.10;;;;;;5078305;28;20428;-67
2022/05/17 09:55:30;;;;;;;3.87;3.57;;;21.10;62.10;;;;;;5074041;28;20459;-68
2022/05/17 09:58:06;;;;;;;3.60;3.30;;;21.10;61.90;;;;;;5090130;28;21046;-66
2022/05/17 10:00:43;;;;;;;3.17;2.97;;;21.10;62.00;;;;;;5085800;28;20405;-68
2022/05/17 10:03:15;;;;;;;3.83;3.63;;;21.10;62.10;;;;;;5074855;28;20484;-68
2022/05/17 10:05:40;;;;;;;3.20;3.00;;;21.10;61.90;;;;;;5074726;28;20917;-67
2022/05/17 10:08:12;;;;;;;3.63;3.40;;;21.10;61.70;;;;;;5073775;28;20418;-66
2022/05/17 10:10:39;;;;;;;3.10;2.80;;;21.10;61.90;;;;;;5074710;28;20681;-67
2022/05/17 10:13:30;;;;;;;3.30;3.10;;;21.10;62.00;;;;;;5074486;28;20464;-66
2022/05/17 10:16:10;;;;;;;3.13;2.93;;;21.10;61.90;;;;;;5074561;28;20582;-68
2022/05/17 10:18:45;;;;;;;3.67;3.37;;;21.10;61.90;;;;;;5074589;28;20488;-66
2022/05/17 10:21:25;;;;;;;3.73;3.43;;;21.10;62.10;;;;;;5074658;28;20847;-69
2022/05/17 10:24:35;;;;;;;3.67;3.37;;;21.10;62.30;;;;;;5074556;28;20424;-68
2022/05/17 10:27:21;;;;;;;4.87;3.47;;;21.10;62.00;;;;;;5074346;28;20433;-67
2022/05/17 10:30:02;;;;;;;3.40;3.17;;;21.10;62.00;;;;;;5074466;28;20405;-68
2022/05/17 10:32:35;;;;;;;3.37;3.17;;;21.10;62.00;;;;;;5074431;28;20752;-68
2022/05/17 10:35:09;;;;;;;3.13;2.93;;;21.10;61.90;;;;;;5074446;28;20584;-68
2022/05/17 10:37:44;;;;;;;3.57;3.27;;;21.10;62.00;;;;;;5074292;28;20412;-69
2022/05/17 10:40:15;;;;;;;3.30;3.10;;;21.10;61.80;;;;;;5074409;28;20388;-68
2022/05/17 10:42:42;;;;;;;2.50;2.40;;;21.10;61.80;;;;;;5074326;28;20854;-67
2022/05/17 10:45:16;;;;;;;3.13;2.93;;;21.10;61.70;;;;;;5074291;28;20879;-67
2022/05/17 10:47:51;;;;;;;3.33;3.13;;;21.10;61.80;;;;;;5074019;28;20453;-67
2022/05/17 10:50:28;;;;;;;3.00;2.80;;;21.10;62.00;;;;;;5079416;28;20408;-68
2022/05/17 10:53:15;;;;;;;3.40;3.10;;;21.10;61.80;;;;;;5087520;28;20452;-67
2022/05/17 10:55:46;;;;;;;3.30;3.10;;;21.00;61.80;;;;;;5094340;28;20492;-67
2022/05/17 10:58:21;;;;;;;3.37;3.17;;;21.10;61.80;;;;;;5093301;28;20405;-67
2022/05/17 11:01:02;;;;;;;3.70;3.40;;;21.00;62.10;;;;;;5094593;28;20400;-67
2022/05/17 11:03:53;;;;;;;3.07;2.87;;;21.10;62.00;;;;;;5092813;28;20412;-67
2022/05/17 11:06:40;;;;;;;3.27;3.07;;;21.10;61.70;;;;;;5088036;28;20544;-67
2022/05/17 11:09:19;;;;;;;3.53;3.27;;;21.10;61.60;;;;;;5073967;28;20754;-67
2022/05/17 11:12:13;;;;;;;3.17;2.97;;;21.10;61.70;;;;;;5074032;28;20400;-68
2022/05/17 11:14:42;;;;;;;3.20;3.00;;;21.10;61.90;;;;;;5070886;28;20587;-68
2022/05/17 11:17:36;;;;;;;3.60;3.30;;;21.10;61.70;;;;;;5073906;28;20455;-68
2022/05/17 11:20:16;;;;;;;3.40;3.10;;;21.10;61.70;;;;;;5073620;28;20429;-68
2022/05/17 11:23:12;;;;;;;3.40;3.13;;;21.00;62.00;;;;;;5073931;28;20495;-67
2022/05/17 11:25:47;;;;;;;3.57;3.30;;;21.10;61.80;;;;;;5073838;28;20401;-68
2022/05/17 11:28:36;;;;;;;3.07;2.77;;;21.10;61.90;;;;;;5073830;28;20500;-68
2022/05/17 11:31:12;;;;;;;3.20;3.00;;;21.00;61.80;;;;;;5073887;28;20399;-68
2022/05/17 11:33:40;;;;;;;3.10;2.90;;;21.10;61.80;;;;;;5073721;28;20455;-68
2022/05/17 11:36:10;;;;;;;3.60;3.30;;;21.10;61.80;;;;;;5073727;28;20420;-66
2022/05/17 11:38:35;;;;;;;3.47;3.17;;;21.10;61.70;;;;;;5076620;28;20411;-67
2022/05/17 11:41:42;;;;;;;3.20;2.90;;;21.10;61.70;;;;;;5077615;28;20413;-68
2022/05/17 11:44:18;;;;;;;3.50;3.20;;;21.10;61.80;;;;;;5077246;28;20225;-67
2022/05/17 11:46:47;;;;;;;3.20;3.00;;;21.10;61.60;;;;;;5076287;28;20529;-67
2022/05/17 11:49:12;;;;;;;3.23;3.03;;;21.10;61.60;;;;;;5077502;28;20755;-67
2022/05/17 11:51:59;;;;;;;3.10;2.90;;;21.10;61.70;;;;;;5077395;28;20408;-66
2022/05/17 11:54:48;;;;;;;3.33;3.03;;;21.10;61.60;;;;;;5077175;28;20203;-67
2022/05/17 11:57:33;;;;;;;2.70;2.50;;;21.10;61.60;;;;;;5077238;28;20432;-67
2022/05/17 12:00:04;;;;;;;3.20;2.90;;;21.10;61.70;;;;;;5077120;28;20458;-67
2022/05/17 12:02:58;;;;;;;3.33;3.03;;;21.10;61.60;;;;;;5077518;28;20425;-69
2022/05/17 12:05:43;;;;;;;3.20;2.63;;;21.10;61.40;;;;;;5077006;28;20405;-69
2022/05/17 12:08:27;;;;;;;2.80;2.60;;;21.10;61.50;;;;;;5077040;28;20404;-66
2022/05/17 12:11:11;;;;;;;3.30;3.10;;;21.10;61.50;;;;;;5095766;28;20886;-67
2022/05/17 12:13:48;;;;;;;3.17;2.97;;;21.10;61.40;;;;;;5096155;28;20448;-68
2022/05/17 12:16:19;;;;;;;3.27;3.03;;;21.10;61.40;;;;;;5097238;28;20412;-67
2022/05/17 12:18:52;;;;;;;3.40;3.20;;;21.10;61.40;;;;;;5097230;28;20396;-68
2022/05/17 12:21:38;;;;;;;3.23;3.03;;;21.10;61.40;;;;;;5097109;28;20480;-67
2022/05/17 12:24:26;;;;;;;3.13;2.93;;;21.10;61.40;;;;;;5097144;28;20396;-67
2022/05/17 12:27:09;;;;;;;2.77;2.67;;;21.10;61.40;;;;;;5096988;28;20806;-65
2022/05/17 12:32:35;;;;;;;3.20;3.00;;;21.00;61.30;;;;;;5097219;28;20415;-68
2022/05/17 12:35:01;;;;;;;2.70;2.43;;;21.10;61.20;;;;;;5096771;28;20460;-67
2022/05/17 12:37:28;;;;;;;2.90;2.70;;;21.10;61.20;;;;;;5096723;28;20815;-67
2022/05/17 12:43:03;;;;;;;2.60;2.50;;;21.10;61.20;;;;;;5097035;28;20922;-67
2022/05/17 12:45:31;;;;;;;2.80;2.60;;;21.10;61.20;;;;;;5096870;28;20398;-67
2022/05/17 12:47:59;;;;;;;2.90;2.80;;;21.10;61.30;;;;;;5096007;28;20459;-66
2022/05/17 12:50:38;;;;;;;3.20;3.00;;;21.10;61.20;;;;;;5096509;28;20443;-66
2022/05/17 12:53:16;;;;;;;2.83;2.63;;;21.10;61.30;;;;;;5096392;28;20803;-67
2022/05/17 12:55:56;;;;;;;2.27;2.17;;;21.00;61.20;;;;;;5095473;28;20472;-68
2022/05/17 12:58:22;;;;;;;2.93;2.73;;;21.10;61.20;;;;;;5096416;28;20412;-69
2022/05/17 13:00:54;;;;;;;3.10;2.90;;;21.00;61.00;;;;;;5095184;28;20463;-67
2022/05/17 13:03:23;;;;;;;2.90;2.70;;;21.10;61.10;;;;;;5087150;28;20416;-69
2022/05/17 13:05:53;;;;;;;2.27;2.17;;;21.10;61.00;;;;;;5087356;28;20907;-68
2022/05/17 13:08:22;;;;;;;3.23;2.50;;;21.10;61.00;;;;;;5076087;28;20419;-68
2022/05/17 13:11:11;;;;;;;2.70;2.50;;;21.00;61.00;;;;;;5075729;28;20401;-66
2022/05/17 13:13:39;;;;;;;2.43;2.33;;;21.00;61.10;;;;;;5075829;28;20887;-67
2022/05/17 13:16:13;;;;;;;3.00;2.80;;;21.10;61.10;;;;;;5075780;28;20532;-67
2022/05/17 13:18:54;;;;;;;2.93;2.73;;;21.10;60.90;;;;;;5075759;28;20478;-66
2022/05/17 13:21:31;;;;;;;2.57;2.47;;;21.10;60.80;;;;;;5075803;28;20481;-66